Time;durP1;ratioP1;P1;durP2;ratioP2;P2;SDS_P1;SDS_P2;PMS_P1;PMS_P2;Temp;Humidity;BMP_temperature;BMP_pressure;BME280_temperature;BME280_humidity;BME280_pressure;Samples;Min_cycle;Max_cycle;Signal;HPM_P1;HPM_P2
2022/02/11 00:00:03;;;;;;;10.68;5.72;;;;;;;5.86;85.58;100956.22;4997310;28;20030;-73
2022/02/11 00:07:34;;;;;;;12.90;6.53;;;;;;;5.97;85.62;100946.88;5003408;28;20402;-73
2022/02/11 00:10:00;;;;;;;8.80;5.43;;;;;;;5.97;85.13;100952.09;4999330;28;20046;-73
2022/02/11 00:12:27;;;;;;;7.85;5.10;;;;;;;6.01;85.03;100953.06;5001798;28;20064;-73
2022/02/11 00:15:21;;;;;;;8.43;4.50;;;;;;;6.01;84.61;100943.47;5001964;28;20033;-72
2022/02/11 00:17:39;;;;;;;8.57;4.43;;;;;;;5.96;84.16;100947.75;4999913;28;20048;-72
2022/02/11 00:20:05;;;;;;;9.43;4.55;;;;;;;5.96;84.12;100947.75;5001093;28;20399;-73
2022/02/11 00:22:30;;;;;;;6.38;4.10;;;;;;;5.97;84.06;100944.25;5003444;28;20121;-72
2022/02/11 00:24:55;;;;;;;10.63;5.20;;;;;;;5.94;83.64;100938.97;5000519;28;20041;-73
2022/02/11 00:30:40;;;;;;;7.55;3.30;;;;;;;5.97;83.37;100949.50;5012087;28;20057;-73
2022/02/11 00:35:48;;;;;;;6.70;3.80;;;;;;;5.92;83.65;100949.38;4995763;28;20042;-73
2022/02/11 00:38:19;;;;;;;8.07;4.15;;;;;;;5.91;83.51;100944.09;4980247;28;20438;-73
2022/02/11 00:41:44;;;;;;;11.35;4.43;;;;;;;5.93;83.91;100947.66;5002872;28;20065;-73
2022/02/11 00:47:10;;;;;;;7.45;3.75;;;;;;;5.91;83.89;100951.97;5000119;28;20394;-72
2022/02/11 01:03:54;;;;;;;6.18;3.90;;;;;;;5.56;82.86;100941.69;4997650;28;20113;-72
2022/02/11 01:06:20;;;;;;;5.40;3.08;;;;;;;5.53;82.97;100938.09;4997728;28;20172;-73
2022/02/11 01:08:45;;;;;;;4.90;3.50;;;;;;;5.56;83.32;100936.44;5001466;28;20121;-72
2022/02/11 01:11:16;;;;;;;7.53;3.78;;;;;;;5.59;84.03;100928.63;5002272;28;20042;-73
2022/02/11 01:13:42;;;;;;;6.82;3.22;;;;;;;5.64;83.13;100919.16;4996592;28;20034;-73
2022/02/11 01:16:12;;;;;;;5.93;3.75;;;;;;;5.66;82.22;100930.53;5001468;28;20418;-72
2022/02/11 01:18:41;;;;;;;7.43;3.42;;;;;;;5.69;82.47;100920.13;5002351;28;20049;-73
2022/02/11 01:21:10;;;;;;;6.30;3.10;;;;;;;5.75;82.59;100921.97;4999620;28;20487;-73
2022/02/11 01:44:58;;;;;;;7.10;3.40;;;;;;;5.66;82.60;100909.59;5002434;28;20042;-73
2022/02/11 01:47:52;;;;;;;7.30;3.47;;;;;;;5.61;81.75;100913.84;5002713;28;20117;-73
2022/02/11 01:50:33;;;;;;;7.40;3.67;;;;;;;5.51;82.32;100905.78;5005604;28;20054;-73
2022/02/11 01:53:16;;;;;;;4.75;3.00;;;;;;;5.47;82.40;100910.06;5023546;28;20043;-73
2022/02/11 01:56:02;;;;;;;6.22;3.60;;;;;;;5.48;82.32;100907.47;5017289;28;20472;-73
2022/02/11 01:58:59;;;;;;;8.55;3.47;;;;;;;5.50;82.89;100907.50;5021996;28;20652;-72
2022/02/11 02:01:52;;;;;;;6.88;3.35;;;;;;;5.42;82.14;100909.06;5019616;28;20501;-73
2022/02/11 02:15:06;;;;;;;4.32;2.55;;;;;;;5.24;82.81;100892.16;5019274;28;20121;-73
2022/02/11 02:18:11;;;;;;;8.35;3.83;;;;;;;5.18;83.48;100892.00;5019652;28;20042;-73
2022/02/11 02:21:04;;;;;;;4.75;2.85;;;;;;;5.24;83.36;100894.75;5019027;28;20060;-73
2022/02/11 02:33:54;;;;;;;6.75;3.30;;;;;;;4.97;84.21;100878.47;5023229;28;20121;-73
2022/02/11 02:43:19;;;;;;;4.53;2.90;;;;;;;4.99;85.04;100875.03;5025012;28;20130;-72
2022/02/11 02:50:16;;;;;;;6.32;3.58;;;;;;;4.90;85.69;100872.22;5021408;28;20417;-73
2022/02/11 02:58:17;;;;;;;5.10;2.90;;;;;;;4.87;85.94;100869.50;5018618;28;20076;-73
2022/02/11 03:01:17;;;;;;;6.72;3.25;;;;;;;4.84;86.22;100854.63;5020167;28;20130;-73
2022/02/11 03:15:40;;;;;;;6.72;3.17;;;;;;;4.59;87.15;100863.66;5019939;28;20121;-73
2022/02/11 03:31:40;;;;;;;6.53;3.35;;;;;;;4.42;89.45;100858.88;5018082;28;20049;-73
2022/02/11 03:53:53;;;;;;;5.63;3.33;;;;;;;3.86;90.23;100867.94;5018935;28;20030;-72
2022/02/11 03:56:35;;;;;;;8.85;3.83;;;;;;;3.80;90.97;100878.25;5019333;28;20081;-73
2022/02/11 04:21:06;;;;;;;6.05;3.30;;;;;;;3.45;92.33;100875.50;5018825;28;20052;-73
2022/02/11 04:27:05;;;;;;;6.25;4.05;;;;;;;3.48;92.64;100875.63;5016521;28;20033;-73
2022/02/11 04:56:36;;;;;;;6.35;3.35;;;;;;;3.03;93.08;100891.69;4962568;28;20070;-74
2022/02/11 05:01:45;;;;;;;4.25;2.50;;;;;;;3.01;93.18;100898.59;5017373;28;20040;-74
2022/02/11 05:04:10;;;;;;;5.53;2.67;;;;;;;2.97;94.15;100891.50;5024027;28;20041;-74
2022/02/11 05:06:36;;;;;;;6.72;3.70;;;;;;;2.92;93.58;100895.69;5010819;28;20038;-74
2022/02/11 05:09:02;;;;;;;5.60;3.10;;;;;;;2.98;93.58;100893.28;5020561;28;20596;-74
2022/02/11 05:11:27;;;;;;;5.05;2.78;;;;;;;2.97;93.39;100901.94;5022576;28;20037;-73
2022/02/11 05:13:53;;;;;;;7.40;3.15;;;;;;;2.98;93.64;100903.69;5017875;28;20089;-74
2022/02/11 05:16:18;;;;;;;7.25;3.05;;;;;;;3.03;93.92;100896.91;5019377;28;20456;-74
2022/02/11 05:18:43;;;;;;;8.18;3.38;;;;;;;3.06;93.52;100891.78;5022426;28;20509;-74
2022/02/11 05:21:09;;;;;;;4.90;3.35;;;;;;;3.12;93.73;100898.00;5026373;28;20033;-73
2022/02/11 05:23:34;;;;;;;10.70;4.50;;;;;;;3.14;94.26;100893.72;5004329;28;20137;-74
2022/02/11 05:25:59;;;;;;;7.05;3.53;;;;;;;3.16;93.86;100899.88;5026051;28;20055;-74
2022/02/11 05:28:25;;;;;;;5.82;3.45;;;;;;;3.13;93.84;100899.81;5024586;28;20544;-76
2022/02/11 05:30:50;;;;;;;7.05;3.78;;;;;;;3.04;93.77;100903.03;5024441;28;20057;-74
2022/02/11 05:33:16;;;;;;;9.18;4.13;;;;;;;3.06;93.88;100899.59;5026005;28;20072;-74
2022/02/11 05:35:42;;;;;;;6.43;3.28;;;;;;;3.07;93.44;100904.00;5022680;28;20123;-74
2022/02/11 05:38:07;;;;;;;7.10;3.75;;;;;;;3.00;93.78;100916.81;5017199;28;20037;-74
2022/02/11 05:40:33;;;;;;;7.18;3.65;;;;;;;2.99;94.00;100925.47;5026920;28;20456;-74
2022/02/11 05:42:59;;;;;;;7.18;4.00;;;;;;;2.93;94.32;100933.09;5027271;28;20371;-73
2022/02/11 05:45:24;;;;;;;9.32;5.05;;;;;;;2.90;94.38;100933.88;5013873;28;20580;-73
2022/02/11 05:47:49;;;;;;;16.05;6.60;;;;;;;2.88;94.23;100922.50;5021440;28;20034;-73
2022/02/11 05:50:14;;;;;;;8.88;4.47;;;;;;;2.94;94.07;100933.16;5024692;28;20049;-75
2022/02/11 05:52:40;;;;;;;9.75;5.45;;;;;;;2.95;94.44;100929.69;4992007;28;20048;-74
2022/02/11 05:55:05;;;;;;;13.07;8.35;;;;;;;2.94;95.12;100933.16;5022062;28;20037;-74
2022/02/11 05:57:31;;;;;;;10.27;5.13;;;;;;;2.96;94.06;100936.69;5025265;28;20120;-74
2022/02/11 05:59:56;;;;;;;7.50;5.10;;;;;;;2.94;94.48;100937.47;5014544;28;20108;-74
2022/02/11 06:02:22;;;;;;;10.02;5.30;;;;;;;2.85;94.17;100946.75;5005443;28;20040;-74
2022/02/11 06:04:47;;;;;;;11.35;5.63;;;;;;;2.82;93.95;100948.38;5021404;28;20494;-74
2022/02/11 06:07:14;;;;;;;7.90;5.07;;;;;;;2.78;93.66;100941.31;5025749;28;20048;-74
2022/02/11 06:09:40;;;;;;;10.05;5.47;;;;;;;2.71;94.04;100947.16;5019392;28;20095;-74
2022/02/11 06:12:06;;;;;;;9.05;4.93;;;;;;;2.67;93.89;100945.28;5003287;28;20033;-74
2022/02/11 06:14:31;;;;;;;8.32;4.57;;;;;;;2.66;94.55;100956.56;5024151;28;20494;-74
2022/02/11 06:16:56;;;;;;;10.98;5.97;;;;;;;2.68;94.82;100949.69;5023361;28;20113;-74
2022/02/11 06:19:21;;;;;;;12.27;5.20;;;;;;;2.71;94.74;100960.19;5022138;28;20045;-73
2022/02/11 06:21:47;;;;;;;6.97;4.45;;;;;;;2.69;94.76;100956.66;5025002;28;20055;-74
2022/02/11 06:24:12;;;;;;;9.68;5.60;;;;;;;2.68;95.07;100960.09;5023342;28;20038;-74
2022/02/11 06:26:37;;;;;;;8.43;4.85;;;;;;;2.66;94.56;100972.19;5023665;28;20381;-74
2022/02/11 06:29:03;;;;;;;10.27;5.63;;;;;;;2.67;94.01;100969.63;5022374;28;20409;-74
2022/02/11 06:31:28;;;;;;;9.27;5.20;;;;;;;2.60;94.30;100981.59;5018538;28;20081;-74
2022/02/11 06:33:54;;;;;;;8.65;4.20;;;;;;;2.56;93.91;100987.50;5020364;28;20065;-74
2022/02/11 06:36:19;;;;;;;8.68;4.38;;;;;;;2.52;94.30;100985.66;5020976;28;20038;-73
2022/02/11 06:38:45;;;;;;;10.07;5.78;;;;;;;2.55;94.66;100990.09;5021382;28;20048;-74
2022/02/11 06:41:11;;;;;;;9.57;5.15;;;;;;;2.56;94.91;100990.13;4989510;28;20038;-74
2022/02/11 06:43:36;;;;;;;9.35;6.25;;;;;;;2.54;94.63;101003.94;5019267;28;20042;-74
2022/02/11 06:46:02;;;;;;;10.57;6.45;;;;;;;2.51;94.79;101002.09;5010989;28;20030;-74
2022/02/11 06:48:28;;;;;;;8.27;4.70;;;;;;;2.49;94.39;101011.63;5021917;28;20108;-74
2022/02/11 06:50:54;;;;;;;11.88;5.38;;;;;;;2.49;94.82;101009.00;5015817;28;20030;-74
2022/02/11 06:53:20;;;;;;;9.15;4.88;;;;;;;2.49;95.43;101019.44;5000861;28;20518;-74
2022/02/11 06:55:46;;;;;;;7.75;4.70;;;;;;;2.47;95.62;101025.41;5005939;28;20057;-74
2022/02/11 06:58:12;;;;;;;6.57;4.72;;;;;;;2.50;95.41;101010.75;5008183;28;20140;-74
2022/02/11 07:00:46;;;;;;;7.15;4.25;;;;;;;2.55;94.86;101011.81;5003138;28;20038;-74
2022/02/11 07:03:12;;;;;;;8.20;4.90;;;;;;;2.50;95.00;101008.16;4992094;28;20042;-74
2022/02/11 07:05:38;;;;;;;10.13;5.70;;;;;;;2.48;95.67;101020.25;5000022;28;20062;-74
2022/02/11 07:08:05;;;;;;;10.45;5.60;;;;;;;2.46;95.56;101026.22;4995183;28;20442;-74
2022/02/11 07:10:30;;;;;;;8.32;5.22;;;;;;;2.50;95.18;101034.22;4998875;28;20470;-75
2022/02/11 07:12:56;;;;;;;8.00;4.28;;;;;;;2.52;95.13;101032.56;4999795;28;20032;-74
2022/02/11 07:15:21;;;;;;;7.88;4.40;;;;;;;2.51;95.07;101035.09;5004058;28;20049;-74
2022/02/11 07:17:46;;;;;;;6.75;3.83;;;;;;;2.53;94.64;101033.44;5003783;28;20576;-74
2022/02/11 07:20:12;;;;;;;5.47;3.58;;;;;;;2.56;94.87;101039.63;5000892;28;20034;-75
2022/02/11 07:22:38;;;;;;;5.80;3.80;;;;;;;2.58;95.26;101042.28;5004293;28;20060;-74
2022/02/11 07:25:05;;;;;;;7.20;3.70;;;;;;;2.51;94.11;101072.44;5002495;28;20030;-75
2022/02/11 07:27:31;;;;;;;7.65;3.67;;;;;;;2.38;94.22;101065.03;5002661;28;20038;-74
2022/02/11 07:29:56;;;;;;;8.02;4.20;;;;;;;2.40;94.12;101064.25;5002540;28;20060;-74
2022/02/11 07:32:24;;;;;;;6.93;4.22;;;;;;;2.36;93.43;101066.72;4999585;28;20491;-74
2022/02/11 07:34:49;;;;;;;5.45;3.78;;;;;;;2.30;93.94;101074.31;4987461;28;20046;-74
2022/02/11 07:37:14;;;;;;;8.85;4.80;;;;;;;2.30;94.30;101063.88;5005919;28;20038;-74
2022/02/11 07:39:40;;;;;;;9.45;4.10;;;;;;;2.27;92.86;101071.59;5000530;28;20057;-74
2022/02/11 07:42:05;;;;;;;10.15;4.72;;;;;;;2.21;93.53;101074.88;5004859;28;20044;-75
2022/02/11 07:44:31;;;;;;;7.55;4.32;;;;;;;2.22;93.78;101080.94;5003492;28;20030;-75
2022/02/11 07:46:56;;;;;;;6.70;4.30;;;;;;;2.11;93.90;101088.38;5006515;28;20163;-75
2022/02/11 07:49:21;;;;;;;8.45;5.30;;;;;;;2.06;95.01;101093.41;4999974;28;20121;-74
2022/02/11 07:51:46;;;;;;;8.93;5.40;;;;;;;2.05;94.28;101094.25;5010485;28;20116;-74
2022/02/11 07:54:12;;;;;;;8.70;5.20;;;;;;;2.06;94.29;101093.41;5021596;28;20071;-74
2022/02/11 07:56:38;;;;;;;8.52;5.75;;;;;;;2.07;94.93;101100.41;5021468;28;20120;-75
2022/02/11 07:59:03;;;;;;;9.57;5.57;;;;;;;2.16;94.64;101098.13;5002915;28;20056;-75
2022/02/11 08:01:29;;;;;;;9.77;5.63;;;;;;;2.13;94.20;101111.03;5020471;28;20034;-74
2022/02/11 08:03:56;;;;;;;9.77;5.20;;;;;;;2.10;94.65;101099.63;5023266;28;20121;-74
2022/02/11 08:06:21;;;;;;;9.05;5.00;;;;;;;2.13;94.82;101095.41;4988603;28;20041;-74
2022/02/11 08:08:46;;;;;;;12.77;5.32;;;;;;;2.17;94.69;101099.00;5020394;28;20029;-74
2022/02/11 08:11:12;;;;;;;10.80;6.00;;;;;;;2.23;94.47;101106.16;5020981;28;20550;-74
2022/02/11 08:13:38;;;;;;;9.82;5.18;;;;;;;2.27;93.96;101102.84;5023178;28;20144;-75
2022/02/11 08:16:05;;;;;;;11.10;5.65;;;;;;;2.34;94.51;101112.66;4986812;28;20132;-75
2022/02/11 08:18:30;;;;;;;9.52;5.15;;;;;;;2.41;94.11;101107.75;5015600;28;20465;-75
2022/02/11 08:20:55;;;;;;;11.98;6.07;;;;;;;2.56;94.16;101107.38;5021252;28;20033;-75
2022/02/11 08:23:21;;;;;;;11.85;5.88;;;;;;;2.61;93.70;101111.03;5019025;28;20038;-75
2022/02/11 08:25:46;;;;;;;11.07;5.90;;;;;;;2.66;93.85;101112.94;5015036;28;20121;-74
2022/02/11 08:28:11;;;;;;;11.60;5.13;;;;;;;2.68;93.54;101122.56;5021225;28;20037;-75
2022/02/11 08:30:38;;;;;;;9.27;4.80;;;;;;;2.69;93.32;101123.47;5020424;28;20045;-74
2022/02/11 08:33:04;;;;;;;11.82;5.30;;;;;;;2.73;93.42;101125.34;5019139;28;20061;-75
2022/02/11 08:35:30;;;;;;;9.55;4.93;;;;;;;2.75;93.37;101124.56;5022553;28;20401;-75
2022/02/11 08:37:55;;;;;;;9.98;5.03;;;;;;;2.89;93.61;101135.47;5020535;28;20480;-75
2022/02/11 08:40:20;;;;;;;8.88;4.35;;;;;;;2.92;92.89;101132.09;5015364;28;20084;-74
2022/02/11 08:42:45;;;;;;;8.75;3.58;;;;;;;2.81;92.42;101145.63;5018400;28;20096;-74
2022/02/11 08:45:11;;;;;;;10.38;4.28;;;;;;;2.73;92.65;101157.50;5017994;28;20441;-76
2022/02/11 08:47:38;;;;;;;14.80;4.78;;;;;;;2.74;93.30;101168.81;5019745;28;20472;-75
2022/02/11 08:50:04;;;;;;;6.18;3.25;;;;;;;2.78;93.12;101165.50;5019518;28;20505;-75
2022/02/11 08:52:30;;;;;;;8.63;3.30;;;;;;;2.75;92.54;101170.56;5020147;28;20096;-76
2022/02/11 08:54:55;;;;;;;8.10;3.47;;;;;;;2.98;92.75;101171.41;5003644;28;20034;-75
2022/02/11 08:57:20;;;;;;;9.10;3.70;;;;;;;3.14;91.53;101178.03;5018000;28;20041;-78
2022/02/11 08:59:46;;;;;;;9.38;4.28;;;;;;;3.26;90.58;101183.66;5041966;22;20132;-77
2022/02/11 09:02:12;;;;;;;9.30;5.05;;;;;;;3.31;89.79;101174.28;5022978;28;20115;-76
2022/02/11 09:04:39;;;;;;;7.32;4.45;;;;;;;3.37;89.24;101177.09;5019944;28;20099;-77
2022/02/11 09:07:08;;;;;;;8.65;5.00;;;;;;;3.57;89.52;101179.47;5023788;28;20449;-77
2022/02/11 09:09:34;;;;;;;8.05;5.50;;;;;;;3.69;88.82;101174.63;5030069;28;20056;-76
2022/02/11 09:11:59;;;;;;;8.57;5.60;;;;;;;3.65;88.26;101170.16;5032199;28;20037;-78
2022/02/11 09:14:25;;;;;;;8.85;5.55;;;;;;;3.72;88.90;101178.25;5014716;28;20121;-77
2022/02/11 09:16:50;;;;;;;9.00;4.57;;;;;;;3.72;87.89;101185.16;5032431;28;20490;-77
2022/02/11 09:19:15;;;;;;;7.75;4.53;;;;;;;3.57;87.85;101182.09;5032299;28;20065;-78
2022/02/11 09:21:41;;;;;;;13.65;7.07;;;;;;;3.55;88.92;101189.84;5032798;28;20037;-77
2022/02/11 09:24:06;;;;;;;12.07;5.60;;;;;;;3.85;87.95;101174.31;5032353;28;20046;-77
2022/02/11 09:26:33;;;;;;;11.90;5.78;;;;;;;3.94;87.99;101168.47;5032846;28;20092;-77
2022/02/11 09:29:00;;;;;;;14.45;6.00;;;;;;;3.92;87.99;101165.81;5029701;28;20080;-77
2022/02/11 09:31:27;;;;;;;9.90;3.90;;;;;;;3.84;86.69;101171.63;5028847;28;20034;-78
2022/02/11 09:33:55;;;;;;;9.60;4.22;;;;;;;3.77;87.34;101177.50;5033158;28;20045;-78
2022/02/11 09:36:21;;;;;;;9.20;4.55;;;;;;;3.80;88.62;101181.09;5033766;28;20041;-78
2022/02/11 09:38:46;;;;;;;7.05;4.10;;;;;;;4.00;88.28;101184.31;5016766;28;20048;-78
2022/02/11 09:41:12;;;;;;;6.20;3.75;;;;;;;4.13;87.13;101180.38;5034021;28;20037;-77
2022/02/11 09:43:38;;;;;;;7.72;3.25;;;;;;;4.14;86.51;101182.16;5034163;28;20056;-78
2022/02/11 09:46:06;;;;;;;8.38;4.05;;;;;;;4.16;86.88;101185.69;5034095;28;20032;-78
2022/02/11 09:48:31;;;;;;;13.48;3.90;;;;;;;4.09;86.53;101186.34;5030974;28;20041;-78
2022/02/11 09:50:57;;;;;;;11.23;5.55;;;;;;;4.29;87.12;101198.28;5025332;28;20132;-78
2022/02/11 09:53:28;;;;;;;10.57;5.03;;;;;;;4.53;86.17;101200.75;5034421;28;20034;-78
2022/02/11 09:55:53;;;;;;;10.15;4.82;;;;;;;4.65;85.30;101197.59;5032354;28;20047;-78
2022/02/11 09:58:19;;;;;;;9.85;5.32;;;;;;;4.71;83.52;101197.75;5012946;28;20573;-78
2022/02/11 10:00:49;;;;;;;7.45;3.38;;;;;;;4.64;80.71;101201.06;5016306;28;20088;-77
2022/02/11 10:03:26;;;;;;;7.53;4.00;;;;;;;4.51;80.70;101199.81;5019406;28;20061;-76
2022/02/11 10:05:57;;;;;;;7.82;3.75;;;;;;;4.51;80.26;101205.03;5017449;28;20057;-78
2022/02/11 10:08:29;;;;;;;9.70;4.30;;;;;;;4.44;79.75;101195.22;5017317;28;20038;-78
2022/02/11 10:10:56;;;;;;;8.00;4.40;;;;;;;4.56;80.38;101197.34;5016368;28;20522;-78
2022/02/11 10:13:25;;;;;;;8.55;4.35;;;;;;;4.70;79.83;101195.97;5016762;28;20080;-78
2022/02/11 10:15:56;;;;;;;7.75;3.90;;;;;;;4.98;80.27;101196.75;5015213;28;20102;-78
2022/02/11 10:18:27;;;;;;;5.97;3.45;;;;;;;5.28;78.54;101197.56;5017245;28;20037;-77
2022/02/11 10:21:00;;;;;;;5.80;3.47;;;;;;;5.49;77.96;101201.56;5015926;28;20121;-78
2022/02/11 10:23:31;;;;;;;8.75;4.00;;;;;;;5.51;77.39;101188.53;5011781;28;20044;-76
2022/02/11 10:26:13;;;;;;;8.32;3.80;;;;;;;5.60;77.42;101194.88;5012254;28;20080;-77
2022/02/11 10:28:43;;;;;;;9.40;3.75;;;;;;;5.52;76.84;101200.78;5007076;28;20045;-77
2022/02/11 10:31:35;;;;;;;9.38;4.15;;;;;;;5.23;76.70;101193.94;5014290;28;20052;-77
2022/02/11 10:34:04;;;;;;;7.30;3.53;;;;;;;5.23;77.61;101200.91;5014335;28;20473;-77
2022/02/11 10:36:35;;;;;;;7.30;3.75;;;;;;;5.21;77.90;101200.88;5014107;28;20049;-76
2022/02/11 10:39:13;;;;;;;9.80;3.70;;;;;;;5.23;78.29;101204.41;5013383;28;20041;-77
2022/02/11 10:42:03;;;;;;;7.00;3.55;;;;;;;5.23;78.06;101208.75;5010756;28;20044;-77
2022/02/11 10:44:39;;;;;;;7.38;3.40;;;;;;;5.18;78.50;101206.00;5012372;28;20033;-77
2022/02/11 10:47:11;;;;;;;10.07;3.63;;;;;;;5.12;78.72;101216.31;5010784;28;20121;-77
2022/02/11 10:49:46;;;;;;;6.37;3.40;;;;;;;5.06;78.18;101218.78;5013994;28;20046;-77
2022/02/11 10:52:12;;;;;;;10.70;3.53;;;;;;;4.91;79.24;101216.63;5010632;28;20648;-77
2022/02/11 10:54:38;;;;;;;9.35;4.15;;;;;;;4.59;80.16;101218.34;5009028;28;20482;-77
2022/02/11 10:57:06;;;;;;;9.27;3.55;;;;;;;4.56;80.91;101210.41;5014019;28;20096;-76
2022/02/11 10:59:33;;;;;;;10.05;3.25;;;;;;;4.43;80.44;101218.69;5008534;28;20026;-77
2022/02/11 11:02:01;;;;;;;7.75;3.45;;;;;;;4.30;81.04;101207.91;5011786;28;20096;-77
2022/02/11 11:04:27;;;;;;;7.68;3.58;;;;;;;4.31;81.27;101212.28;5014014;28;20502;-78
2022/02/11 11:06:56;;;;;;;8.93;3.40;;;;;;;4.24;81.72;101210.31;5013803;28;20041;-76
2022/02/11 11:09:24;;;;;;;9.50;4.03;;;;;;;4.42;82.43;101196.91;5013802;28;20550;-77
2022/02/11 11:11:50;;;;;;;7.72;3.83;;;;;;;4.49;81.34;101205.84;4995371;28;20072;-78
2022/02/11 11:14:17;;;;;;;11.88;3.92;;;;;;;4.69;79.70;101199.47;5014365;28;20059;-77
2022/02/11 11:16:45;;;;;;;9.25;3.97;;;;;;;4.85;80.42;101200.78;5014201;28;20046;-76
2022/02/11 11:19:11;;;;;;;9.13;3.97;;;;;;;4.95;78.46;101196.66;5013663;28;20037;-76
2022/02/11 11:21:40;;;;;;;9.13;4.18;;;;;;;5.13;79.50;101199.75;5013045;28;20108;-76
2022/02/11 11:24:06;;;;;;;8.48;3.97;;;;;;;5.34;79.16;101191.59;5011691;28;20434;-76
2022/02/11 11:26:37;;;;;;;7.28;3.60;;;;;;;5.64;78.57;101188.00;5012684;28;20042;-75
2022/02/11 11:29:11;;;;;;;9.30;4.18;;;;;;;5.96;77.63;101187.91;5013085;28;20132;-76
2022/02/11 11:31:37;;;;;;;6.15;3.45;;;;;;;6.01;77.17;101188.88;5012600;28;20045;-76
2022/02/11 11:34:14;;;;;;;6.55;3.95;;;;;;;5.95;75.59;101187.03;5012496;28;20576;-76
2022/02/11 11:36:48;;;;;;;7.20;3.42;;;;;;;5.93;75.05;101183.44;5012840;28;20497;-76
2022/02/11 11:39:14;;;;;;;8.98;4.20;;;;;;;5.82;75.65;101184.94;5002689;28;20108;-77
2022/02/11 11:41:40;;;;;;;8.02;4.07;;;;;;;5.96;76.34;101183.53;5013552;28;20026;-77
2022/02/11 11:44:16;;;;;;;10.98;3.60;;;;;;;6.01;75.83;101187.16;5009909;28;20552;-77
2022/02/11 11:46:52;;;;;;;5.47;3.13;;;;;;;5.84;75.15;101185.81;5010788;28;20037;-76
2022/02/11 11:49:25;;;;;;;9.30;4.10;;;;;;;5.78;76.44;101189.19;5013773;28;20044;-77
2022/02/11 11:51:50;;;;;;;7.00;3.45;;;;;;;5.92;75.17;101179.94;5014021;28;20069;-77
2022/02/11 11:54:15;;;;;;;7.57;3.85;;;;;;;5.91;75.00;101185.13;5013771;28;20065;-77
2022/02/11 11:56:42;;;;;;;5.70;3.45;;;;;;;5.99;75.21;101177.47;5013409;28;20046;-76
2022/02/11 11:59:24;;;;;;;7.15;3.05;;;;;;;5.97;73.50;101190.53;5014412;28;20506;-77
2022/02/11 12:01:55;;;;;;;10.98;3.03;;;;;;;5.97;73.43;101185.28;5005362;28;20482;-76
2022/02/11 12:04:23;;;;;;;5.30;2.70;;;;;;;5.84;73.09;101198.94;4993036;28;20387;-76
2022/02/11 12:06:55;;;;;;;7.88;3.17;;;;;;;5.93;73.83;101186.06;4993868;28;20464;-76
2022/02/11 12:09:22;;;;;;;4.88;2.80;;;;;;;5.83;73.07;101181.44;5008933;28;20128;-76
2022/02/11 12:11:47;;;;;;;6.57;3.10;;;;;;;5.79;73.24;101187.44;5012162;28;20409;-77
2022/02/11 12:14:15;;;;;;;7.70;2.97;;;;;;;5.89;73.80;101192.06;5011640;28;20073;-76
2022/02/11 12:16:40;;;;;;;6.43;3.08;;;;;;;5.90;74.26;101196.47;5011811;28;20088;-77
2022/02/11 12:19:05;;;;;;;5.90;3.28;;;;;;;5.95;73.30;101202.75;5011799;28;20148;-76
2022/02/11 12:21:31;;;;;;;7.28;3.00;;;;;;;5.92;75.08;101197.38;4992876;28;20030;-76
2022/02/11 12:29:27;;;;;;;6.70;3.80;;;;;;;5.89;74.47;101189.44;5009558;28;20076;-76
2022/02/11 12:31:55;;;;;;;8.48;4.15;;;;;;;5.91;74.46;101206.97;5010297;28;20029;-75
2022/02/11 12:34:21;;;;;;;6.75;3.67;;;;;;;5.89;75.33;101197.31;5009269;28;20034;-76
2022/02/11 12:36:48;;;;;;;11.13;4.07;;;;;;;5.93;74.90;101199.16;5011326;28;20042;-76
2022/02/11 12:39:22;;;;;;;9.70;3.42;;;;;;;5.96;74.72;101203.63;5011526;28;20704;-76
2022/02/11 12:41:53;;;;;;;7.28;3.22;;;;;;;6.02;74.64;101217.72;5008049;28;20037;-76
2022/02/11 12:44:26;;;;;;;7.68;3.40;;;;;;;5.86;75.86;101202.47;5011288;28;20536;-76
2022/02/11 12:46:53;;;;;;;9.73;3.80;;;;;;;5.62;78.26;101219.38;5011181;28;20207;-76
2022/02/11 12:49:19;;;;;;;6.55;3.22;;;;;;;5.62;78.08;101208.88;5009644;28;20092;-76
2022/02/11 12:51:52;;;;;;;7.22;3.42;;;;;;;5.57;78.17;101215.75;5011427;28;20030;-76
2022/02/11 12:54:19;;;;;;;8.05;3.88;;;;;;;5.61;78.14;101233.31;5011198;28;20048;-76
2022/02/11 12:56:45;;;;;;;6.85;3.50;;;;;;;5.54;79.26;101220.03;5011274;28;20045;-76
2022/02/11 12:59:11;;;;;;;9.15;3.83;;;;;;;5.42;80.58;101236.28;5014484;28;20092;-76
2022/02/11 13:01:36;;;;;;;7.28;4.13;;;;;;;5.34;80.29;101224.75;5011364;28;20034;-76
2022/02/11 13:04:01;;;;;;;6.57;3.67;;;;;;;5.24;80.69;101242.84;5011040;28;20041;-77
2022/02/11 13:06:27;;;;;;;10.10;4.07;;;;;;;5.16;81.36;101239.13;5010917;28;20401;-77
2022/02/11 13:09:05;;;;;;;8.55;4.05;;;;;;;5.12;81.50;101237.25;5011141;28;20154;-76
2022/02/11 13:11:32;;;;;;;7.05;3.55;;;;;;;5.13;81.00;101239.00;5007465;28;20413;-76
2022/02/11 13:14:07;;;;;;;8.00;3.30;;;;;;;5.18;79.97;101226.94;5010870;28;20045;-76
2022/02/11 13:16:35;;;;;;;9.02;3.67;;;;;;;5.25;80.52;101225.38;5011055;28;20473;-76
2022/02/11 13:19:11;;;;;;;7.60;3.45;;;;;;;5.20;80.07;101235.72;5011030;28;20042;-76
2022/02/11 13:21:37;;;;;;;7.40;3.83;;;;;;;5.22;81.05;101248.88;5011139;28;20116;-76
2022/02/11 13:24:03;;;;;;;4.68;2.80;;;;;;;5.30;80.67;101246.47;5010860;28;20100;-75
2022/02/11 13:26:29;;;;;;;8.25;3.53;;;;;;;5.39;79.45;101252.81;5011206;28;20115;-75
2022/02/11 13:28:56;;;;;;;6.63;3.20;;;;;;;5.37;80.02;101258.84;5012348;28;20486;-76
2022/02/11 13:31:22;;;;;;;7.30;3.20;;;;;;;5.31;80.88;101261.31;4993489;28;20033;-76
2022/02/11 13:34:02;;;;;;;5.00;2.95;;;;;;;5.15;81.95;101273.97;5011166;28;20042;-76
2022/02/11 13:36:28;;;;;;;6.85;3.55;;;;;;;5.08;83.86;101269.41;5014955;28;20038;-76
2022/02/11 13:38:53;;;;;;;6.18;3.75;;;;;;;5.20;83.39;101268.88;5014646;28;20486;-76
2022/02/11 13:41:32;;;;;;;8.30;3.38;;;;;;;5.22;83.40;101264.56;5014809;28;20413;-77
2022/02/11 13:44:01;;;;;;;7.13;3.45;;;;;;;5.25;82.86;101269.88;5014500;28;20117;-76
2022/02/11 13:46:31;;;;;;;6.38;3.50;;;;;;;5.23;81.91;101275.06;5014825;28;20053;-77
2022/02/11 13:49:01;;;;;;;6.60;4.32;;;;;;;5.25;82.10;101286.47;5014621;28;20050;-76
2022/02/11 13:51:27;;;;;;;9.05;3.72;;;;;;;5.24;82.04;101269.00;5014495;28;20034;-76
2022/02/11 13:53:53;;;;;;;7.13;3.45;;;;;;;5.22;81.97;101283.78;5014665;28;20661;-76
2022/02/11 13:56:37;;;;;;;6.40;3.33;;;;;;;5.19;82.38;101293.28;5005780;28;20125;-77
2022/02/11 13:59:06;;;;;;;7.72;3.60;;;;;;;5.08;84.49;101297.31;5014882;28;20560;-77
2022/02/11 14:01:33;;;;;;;6.68;2.85;;;;;;;4.92;85.05;101302.09;5013628;28;20124;-76
2022/02/11 14:04:04;;;;;;;5.30;2.70;;;;;;;4.79;85.79;101311.34;5014774;28;20048;-76
2022/02/11 14:06:36;;;;;;;8.38;3.60;;;;;;;4.70;87.16;101305.81;5015090;28;20413;-76
2022/02/11 14:09:10;;;;;;;4.90;2.90;;;;;;;4.65;86.76;101323.09;5014143;28;20042;-76
2022/02/11 14:11:40;;;;;;;8.27;3.28;;;;;;;4.52;87.81;101316.59;5011847;28;20037;-77
2022/02/11 14:14:17;;;;;;;5.25;3.10;;;;;;;4.47;87.38;101322.53;5014186;28;20037;-76
2022/02/11 14:16:47;;;;;;;8.57;3.80;;;;;;;4.42;89.50;101334.56;5011954;28;20038;-76
2022/02/11 14:19:17;;;;;;;7.22;4.20;;;;;;;4.43;89.73;101336.31;5012245;28;20533;-77
2022/02/11 14:21:42;;;;;;;7.25;3.67;;;;;;;4.46;89.03;101323.38;5011548;28;20038;-76
2022/02/11 14:24:09;;;;;;;7.45;3.75;;;;;;;4.40;89.98;101326.66;5010825;28;20478;-77
2022/02/11 14:26:35;;;;;;;9.52;4.93;;;;;;;4.46;90.35;101336.44;5013547;28;20029;-76
2022/02/11 14:29:01;;;;;;;8.40;4.03;;;;;;;4.46;90.20;101332.09;5001286;28;20026;-75
2022/02/11 14:31:26;;;;;;;8.13;4.50;;;;;;;4.47;90.56;101333.84;5013919;28;20045;-76
2022/02/11 14:33:51;;;;;;;8.38;4.53;;;;;;;4.55;91.45;101332.38;5013934;28;20049;-76
2022/02/11 14:36:17;;;;;;;6.32;4.13;;;;;;;4.66;90.76;101343.16;5013524;28;20038;-76
2022/02/11 14:38:42;;;;;;;8.82;4.80;;;;;;;4.66;90.63;101340.53;5013814;28;20125;-76
2022/02/11 14:44:11;;;;;;;7.18;3.95;;;;;;;4.68;90.70;101349.31;4914610;29;20119;-77
2022/02/11 14:46:36;;;;;;;10.00;4.78;;;;;;;4.72;90.63;101353.81;4914402;29;20474;-76
2022/02/11 14:49:02;;;;;;;8.55;4.30;;;;;;;4.76;90.48;101350.44;4959849;28;20425;-77
2022/02/11 14:51:27;;;;;;;10.00;5.90;;;;;;;4.93;91.27;101343.13;5011164;28;20430;-77
2022/02/11 14:53:53;;;;;;;9.88;5.38;;;;;;;5.08;90.66;101340.03;5008006;28;20045;-76